Artesia ASC Data

Date Time Air Temperature Relative Humidity Wind Speed Wind Dir. Rain Solar Radiation Soil Temperature
2m 2m 3m 3m 10cm
US/Mountain F % MPH deg in MJ/m^2 F
max min avg max min avg max avg avg max min avg
2019-12-14 01:00:00 44.7 39.0 42.5 71.1 52.5 59.9 6.2 2.7 311.4 0.00 0.0000000 51.1 50.5 50.8
2019-12-14 02:00:00 41.4 38.0 39.8 74.3 63.8 68.3 11.0 2.7 257.1 0.00 0.0000000 50.5 50.0 50.3
2019-12-14 03:00:00 40.8 36.6 38.2 77.4 65.0 72.3 4.0 2.4 286.4 0.00 0.0000000 50.0 49.5 49.7
2019-12-14 04:00:00 38.7 34.9 36.6 81.0 70.6 76.4 4.9 2.7 333.0 0.00 0.0000000 49.5 49.0 49.2
2019-12-14 05:00:00 37.0 33.9 35.1 81.9 72.9 78.0 4.0 2.5 326.1 0.00 0.0000000 49.0 48.5 48.8
2019-12-14 06:00:00 36.0 33.0 34.6 86.6 76.6 81.4 5.8 3.2 323.7 0.00 0.0000000 48.5 48.1 48.3
2019-12-14 07:00:00 33.8 32.7 33.3 87.2 83.6 85.3 5.8 3.3 333.3 0.00 0.0057167 48.1 47.7 47.9
2019-12-14 08:00:00 40.8 33.2 36.7 85.2 65.5 76.9 5.5 2.3 338.7 0.00 0.2791660 47.7 47.3 47.5
2019-12-14 09:00:00 46.4 40.2 43.4 67.8 56.7 61.2 6.3 3.8 350.9 0.00 0.8307994 47.4 47.2 47.3
2019-12-14 10:00:00 52.3 46.0 49.6 58.1 45.8 50.1 8.1 4.3 14.6 0.00 1.3559840 47.6 47.2 47.4
2019-12-14 11:00:00 57.6 52.1 54.9 47.1 41.3 45.0 8.1 4.9 12.9 0.00 1.7278680 48.6 47.6 48.1
2019-12-14 12:00:00 63.4 56.7 60.0 42.7 35.5 39.5 8.3 3.9 3.8 0.00 1.9093130 50.0 48.6 49.3
2019-12-14 13:00:00 72.4 63.0 67.2 37.3 25.4 32.2 8.8 3.6 333.5 0.00 1.9014740 51.6 50.0 50.8
2019-12-14 14:00:00 75.2 70.9 74.0 29.6 21.5 24.1 24.8 13.1 248.0 0.00 1.6697620 53.0 51.6 52.3
2019-12-14 15:00:00 75.1 73.8 74.4 25.3 21.7 23.3 23.7 18.0 248.0 0.00 1.2638860 54.1 53.0 53.6
2019-12-14 16:00:00 74.5 70.8 72.8 27.0 22.1 24.1 27.2 18.6 244.2 0.00 0.7572391 54.8 54.1 54.5
2019-12-14 17:00:00 71.0 67.0 69.1 29.8 25.0 27.3 25.6 16.5 244.9 0.00 0.1544963 55.1 54.8 55.0
2019-12-14 18:00:00 67.4 64.7 66.3 29.7 27.6 28.6 23.3 18.0 243.4 0.00 0.0009189 55.1 55.0 55.1
2019-12-14 19:00:00 65.0 59.6 61.6 35.9 28.8 33.1 16.9 9.7 239.5 0.00 0.0000000 55.0 54.7 54.9
2019-12-14 20:00:00 63.6 59.7 62.0 36.0 29.4 32.1 24.0 14.5 245.4 0.00 0.0000000 54.7 54.3 54.5
2019-12-14 21:00:00 63.4 61.2 62.2 31.7 29.2 30.6 22.4 12.0 250.0 0.00 0.0000000 54.3 54.0 54.1
2019-12-14 22:00:00 61.6 57.1 59.3 37.9 31.1 35.0 12.1 6.1 254.9 0.00 0.0000000 54.0 53.7 53.8
2019-12-14 23:00:00 61.8 57.2 59.3 42.8 35.5 38.6 17.4 10.1 248.8 0.00 0.0000000 53.7 53.3 53.5
2019-12-15 00:00:00 61.6 55.7 59.2 45.0 35.3 39.5 14.7 7.1 267.3 0.00 0.0000000 53.3 53.1 53.2

Data is courtesy of the NM Climate Center. DO NOT USE IN LEGAL PROCEEDINGS.